createdAt,value
2018-04-07T00:00:33.553Z,7.38
2018-04-07T00:01:33.571Z,7.34
2018-04-07T00:02:33.562Z,7.40
2018-04-07T00:03:33.577Z,7.41
2018-04-07T00:04:33.585Z,7.27
2018-04-07T00:05:33.591Z,7.23
2018-04-07T00:06:33.606Z,7.24
2018-04-07T00:07:33.617Z,7.23
2018-04-07T00:08:33.612Z,7.23
2018-04-07T00:09:33.623Z,7.16
2018-04-07T00:10:33.630Z,7.23
2018-04-07T00:11:33.637Z,7.24
2018-04-07T00:12:33.645Z,7.22
2018-04-07T00:13:33.658Z,7.09
2018-04-07T00:14:33.662Z,7.09
2018-04-07T00:15:33.671Z,7.04
2018-04-07T00:16:33.678Z,7.09
2018-04-07T00:17:33.689Z,6.97
2018-04-07T00:18:33.699Z,7.07
2018-04-07T00:19:33.712Z,6.98
2018-04-07T00:20:33.709Z,6.90
2018-04-07T00:21:33.719Z,6.80
2018-04-07T00:22:33.727Z,6.86
2018-04-07T00:23:33.732Z,6.73
2018-04-07T00:24:33.742Z,6.71
2018-04-07T00:25:33.792Z,6.83
2018-04-07T00:26:33.758Z,6.99
2018-04-07T00:27:33.774Z,6.94
2018-04-07T00:28:33.773Z,6.98
2018-04-07T00:29:33.789Z,6.99
2018-04-07T00:30:33.790Z,6.94
2018-04-07T00:31:33.810Z,6.98
2018-04-07T00:32:33.805Z,6.94
2018-04-07T00:33:33.816Z,6.94
2018-04-07T00:34:33.820Z,6.90
2018-04-07T00:35:33.829Z,6.86
2018-04-07T00:36:33.842Z,6.72
2018-04-07T00:37:33.850Z,6.51
2018-04-07T00:38:33.853Z,6.32
2018-04-07T00:39:33.863Z,6.36
2018-04-07T00:40:33.868Z,6.35
2018-04-07T00:41:33.918Z,6.36
2018-04-07T00:42:33.883Z,6.50
2018-04-07T00:43:33.898Z,6.41
2018-04-07T00:44:33.900Z,6.40
2018-04-07T00:45:33.908Z,6.36
2018-04-07T00:46:33.914Z,6.46
2018-04-07T00:47:33.928Z,6.44
2018-04-07T00:48:33.932Z,6.50
2018-04-07T00:49:33.945Z,6.43
2018-04-07T00:50:33.947Z,6.28
2018-04-07T00:51:33.956Z,6.25
2018-04-07T00:52:33.963Z,6.35
2018-04-07T00:53:33.976Z,6.33
2018-04-07T00:54:33.988Z,6.41
2018-04-07T00:55:33.995Z,6.35
2018-04-07T00:56:34.001Z,6.41
2018-04-07T00:57:34.004Z,6.44
2018-04-07T00:58:34.007Z,6.46
2018-04-07T00:59:34.015Z,6.36
2018-04-07T01:00:34.030Z,6.47
2018-04-07T01:01:34.032Z,6.51
2018-04-07T01:02:34.044Z,6.44
2018-04-07T01:03:34.046Z,6.36
2018-04-07T01:04:34.056Z,6.44
2018-04-07T01:05:34.064Z,6.44
2018-04-07T01:06:34.072Z,6.40
2018-04-07T01:07:34.085Z,6.33
2018-04-07T01:08:34.095Z,6.32
2018-04-07T01:09:34.095Z,6.18
2018-04-07T01:10:34.100Z,6.30
2018-04-07T01:11:34.110Z,6.26
2018-04-07T01:12:34.120Z,6.25
2018-04-07T01:13:34.126Z,6.16
2018-04-07T01:14:34.136Z,6.13
2018-04-07T01:15:34.139Z,6.25
2018-04-07T01:16:34.149Z,6.25
2018-04-07T01:17:34.160Z,6.21
2018-04-07T01:18:34.162Z,6.22
2018-04-07T01:19:34.170Z,6.18
2018-04-07T01:20:34.182Z,6.29
2018-04-07T01:21:34.193Z,6.21
2018-04-07T01:22:34.195Z,6.10
2018-04-07T01:23:34.202Z,6.11
2018-04-07T01:24:34.208Z,6.11
2018-04-07T01:25:34.218Z,6.19
2018-04-07T01:26:34.231Z,6.22
2018-04-07T01:27:34.240Z,6.26
2018-04-07T01:28:34.240Z,6.38
2018-04-07T01:29:34.249Z,6.32
2018-04-07T01:30:34.254Z,6.32
2018-04-07T01:31:34.262Z,6.35
2018-04-07T01:32:34.273Z,6.40
2018-04-07T01:33:34.286Z,6.29
2018-04-07T01:34:34.286Z,6.32
2018-04-07T01:35:34.292Z,6.22
2018-04-07T01:36:34.302Z,6.21
2018-04-07T01:37:34.309Z,6.13
2018-04-07T01:38:34.319Z,6.03
2018-04-07T01:39:34.325Z,6.09
2018-04-07T01:40:34.331Z,6.10
2018-04-07T01:41:34.336Z,6.09
2018-04-07T01:42:34.344Z,5.98
2018-04-07T01:43:34.352Z,6.11
2018-04-07T01:44:34.366Z,6.03
2018-04-07T01:45:34.374Z,5.91
2018-04-07T01:46:34.374Z,5.89
2018-04-07T01:47:34.382Z,5.86
2018-04-07T01:48:34.392Z,5.75
2018-04-07T01:49:34.400Z,5.75
2018-04-07T01:50:34.402Z,5.74
2018-04-07T01:51:34.415Z,5.85
2018-04-07T01:52:34.420Z,5.83
2018-04-07T01:53:34.431Z,5.88
2018-04-07T01:54:34.433Z,5.86
2018-04-07T01:55:34.441Z,5.92
2018-04-07T01:56:34.454Z,5.92
2018-04-07T01:57:34.461Z,5.85
2018-04-07T01:58:34.466Z,5.89
2018-04-07T01:59:34.473Z,5.89
2018-04-07T02:00:34.490Z,5.92
2018-04-07T02:01:34.486Z,5.93
2018-04-07T02:02:34.496Z,5.89
2018-04-07T02:03:34.515Z,5.75
2018-04-07T02:04:34.512Z,5.73
2018-04-07T02:05:34.515Z,5.71
2018-04-07T02:06:34.523Z,5.73
2018-04-07T02:07:34.536Z,5.81
2018-04-07T02:08:34.540Z,5.82
2018-04-07T02:09:34.550Z,5.74
2018-04-07T02:10:34.555Z,5.71
2018-04-07T02:11:34.559Z,5.71
2018-04-07T02:12:34.569Z,5.71
2018-04-07T02:13:34.576Z,5.81
2018-04-07T02:14:34.581Z,5.68
2018-04-07T02:15:34.597Z,5.70
2018-04-07T02:16:34.598Z,5.81
2018-04-07T02:17:34.603Z,5.77
2018-04-07T02:18:34.616Z,5.81
2018-04-07T02:19:34.622Z,5.82
2018-04-07T02:20:34.634Z,5.86
2018-04-07T02:21:34.638Z,5.77
2018-04-07T02:22:34.641Z,5.85
2018-04-07T02:23:34.648Z,5.82
2018-04-07T02:24:34.657Z,5.78
2018-04-07T02:25:34.664Z,5.78
2018-04-07T02:26:34.675Z,5.83
2018-04-07T02:27:34.684Z,5.78
2018-04-07T02:28:34.686Z,5.75
2018-04-07T02:29:34.693Z,5.70
2018-04-07T02:30:34.704Z,5.68
2018-04-07T02:31:34.714Z,5.67
2018-04-07T02:32:34.714Z,5.59
2018-04-07T02:33:34.732Z,5.41
2018-04-07T02:34:34.729Z,5.37
2018-04-07T02:35:34.733Z,5.32
2018-04-07T02:36:34.743Z,5.22
2018-04-07T02:37:34.751Z,5.23
2018-04-07T02:38:34.759Z,5.31
2018-04-07T02:39:34.773Z,5.48
2018-04-07T02:40:34.775Z,5.38
2018-04-07T02:41:34.779Z,5.48
2018-04-07T02:42:34.850Z,5.55
2018-04-07T02:43:34.796Z,5.41
2018-04-07T02:44:34.803Z,5.35
2018-04-07T02:45:34.816Z,5.43
2018-04-07T02:46:34.814Z,5.37
2018-04-07T02:47:34.825Z,5.40
2018-04-07T02:48:34.831Z,5.37
2018-04-07T02:49:34.837Z,5.22
2018-04-07T02:50:34.841Z,5.17
2018-04-07T02:51:34.851Z,5.16
2018-04-07T02:52:34.859Z,4.98
2018-04-07T02:53:34.864Z,4.80
2018-04-07T02:54:34.874Z,4.89
2018-04-07T02:55:34.878Z,4.95
2018-04-07T02:56:34.886Z,5.01
2018-04-07T02:57:34.910Z,4.96
2018-04-07T02:58:34.903Z,5.05
2018-04-07T02:59:34.906Z,5.01
2018-04-07T03:00:34.923Z,5.05
2018-04-07T03:01:34.922Z,4.94
2018-04-07T03:02:34.927Z,5.02
2018-04-07T03:03:34.946Z,4.95
2018-04-07T03:04:34.945Z,4.98
2018-04-07T03:05:34.950Z,4.92
2018-04-07T03:06:34.960Z,4.86
2018-04-07T03:07:34.961Z,4.83
2018-04-07T03:08:34.973Z,4.86
2018-04-07T03:09:34.989Z,4.73
2018-04-07T03:10:34.981Z,4.75
2018-04-07T03:11:34.989Z,4.76
2018-04-07T03:12:34.999Z,4.67
2018-04-07T03:13:35.003Z,4.79
2018-04-07T03:14:35.017Z,4.70
2018-04-07T03:15:35.023Z,4.79
2018-04-07T03:16:35.038Z,4.89
2018-04-07T03:17:35.032Z,4.83
2018-04-07T03:18:35.040Z,4.89
2018-04-07T03:19:35.045Z,4.88
2018-04-07T03:20:35.053Z,4.91
2018-04-07T03:21:35.066Z,4.88
2018-04-07T03:22:35.070Z,4.91
2018-04-07T03:23:35.074Z,4.88
2018-04-07T03:24:35.079Z,4.86
2018-04-07T03:25:35.090Z,4.86
2018-04-07T03:26:35.099Z,4.86
2018-04-07T03:27:35.098Z,4.83
2018-04-07T03:28:35.110Z,4.86
2018-04-07T03:29:35.116Z,4.83
2018-04-07T03:30:35.124Z,4.80
2018-04-07T03:31:35.132Z,4.73
2018-04-07T03:32:35.138Z,4.50
2018-04-07T03:33:35.141Z,4.58
2018-04-07T03:34:35.146Z,4.67
2018-04-07T03:35:35.153Z,4.75
2018-04-07T03:36:35.165Z,4.70
2018-04-07T03:37:35.168Z,4.62
2018-04-07T03:38:35.178Z,4.55
2018-04-07T03:39:35.180Z,4.59
2018-04-07T03:40:35.190Z,4.59
2018-04-07T03:41:35.196Z,4.46
2018-04-07T03:42:35.209Z,4.43
2018-04-07T03:43:35.211Z,4.47
2018-04-07T03:44:35.226Z,4.44
2018-04-07T03:45:35.227Z,4.47
2018-04-07T03:46:35.229Z,4.39
2018-04-07T03:47:35.236Z,4.32
2018-04-07T03:48:35.243Z,3.94
2018-04-07T03:49:35.249Z,3.75
2018-04-07T03:50:35.268Z,3.75
2018-04-07T03:51:35.264Z,3.79
2018-04-07T03:52:35.269Z,3.70
2018-04-07T03:53:35.276Z,3.65
2018-04-07T03:54:35.282Z,3.82
2018-04-07T03:55:35.290Z,3.92
2018-04-07T03:56:35.301Z,3.82
2018-04-07T03:57:35.344Z,3.89
2018-04-07T03:58:35.314Z,3.92
2018-04-07T03:59:35.318Z,4.06
2018-04-07T04:00:35.322Z,4.14
2018-04-07T04:01:35.327Z,4.06
2018-04-07T04:02:35.339Z,4.21
2018-04-07T04:03:35.340Z,4.21
2018-04-07T04:04:35.348Z,4.19
2018-04-07T04:05:35.356Z,4.15
2018-04-07T04:06:35.362Z,4.18
2018-04-07T04:07:35.370Z,4.16
2018-04-07T04:08:35.378Z,4.28
2018-04-07T04:09:35.380Z,4.26
2018-04-07T04:10:35.388Z,4.15
2018-04-07T04:11:35.394Z,4.06
2018-04-07T04:12:35.402Z,4.10
2018-04-07T04:13:35.406Z,4.08
2018-04-07T04:14:35.421Z,4.06
2018-04-07T04:15:35.453Z,4.07
2018-04-07T04:16:35.426Z,4.03
2018-04-07T04:17:35.434Z,3.98
2018-04-07T04:18:35.438Z,4.00
2018-04-07T04:19:35.446Z,4.00
2018-04-07T04:20:35.457Z,4.03
2018-04-07T04:21:35.462Z,4.03
2018-04-07T04:22:35.467Z,4.01
2018-04-07T04:23:35.472Z,3.92
2018-04-07T04:24:35.477Z,3.83
2018-04-07T04:25:35.484Z,3.80
2018-04-07T04:26:35.497Z,3.85
2018-04-07T04:27:35.496Z,3.86
2018-04-07T04:28:35.503Z,3.92
2018-04-07T04:29:35.510Z,3.86
2018-04-07T04:30:35.516Z,3.89
2018-04-07T04:31:35.524Z,3.75
2018-04-07T04:32:35.537Z,3.83
2018-04-07T04:33:35.537Z,3.79
2018-04-07T04:34:35.542Z,3.83
2018-04-07T04:35:35.550Z,3.78
2018-04-07T04:36:35.554Z,3.82
2018-04-07T04:37:35.559Z,3.80
2018-04-07T04:38:35.575Z,3.68
2018-04-07T04:39:35.573Z,3.61
2018-04-07T04:40:35.578Z,3.68
2018-04-07T04:41:35.587Z,3.62
2018-04-07T04:42:35.592Z,3.64
2018-04-07T04:43:35.601Z,3.68
2018-04-07T04:44:35.618Z,3.65
2018-04-07T04:45:35.615Z,3.62
2018-04-07T04:46:35.617Z,3.65
2018-04-07T04:47:35.622Z,3.58
2018-04-07T04:48:35.629Z,3.58
2018-04-07T04:49:35.643Z,3.67
2018-04-07T04:50:35.643Z,3.60
2018-04-07T04:51:35.657Z,3.68
2018-04-07T04:52:35.659Z,3.64
2018-04-07T04:53:35.661Z,3.67
2018-04-07T04:54:35.672Z,3.64
2018-04-07T04:55:35.674Z,3.44
2018-04-07T04:56:35.687Z,3.47
2018-04-07T04:57:35.694Z,3.44
2018-04-07T04:58:35.692Z,3.44
2018-04-07T04:59:35.700Z,3.44
2018-04-07T05:00:35.709Z,3.46
2018-04-07T05:01:35.713Z,3.33
2018-04-07T05:02:35.722Z,3.25
2018-04-07T05:03:35.733Z,3.21
2018-04-07T05:04:35.731Z,3.31
2018-04-07T05:05:35.736Z,3.28
2018-04-07T05:06:35.744Z,3.27
2018-04-07T05:07:35.749Z,3.20
2018-04-07T05:08:35.755Z,3.30
2018-04-07T05:09:35.803Z,3.44
2018-04-07T05:10:35.771Z,3.58
2018-04-07T05:11:35.778Z,3.61
2018-04-07T05:12:35.790Z,3.70
2018-04-07T05:13:35.785Z,3.64
2018-04-07T05:14:35.802Z,3.72
2018-04-07T05:15:35.797Z,3.80
2018-04-07T05:16:35.802Z,3.72
2018-04-07T05:17:35.810Z,3.85
2018-04-07T05:18:35.834Z,3.78
2018-04-07T05:19:35.824Z,3.82
2018-04-07T05:20:35.830Z,3.80
2018-04-07T05:21:35.841Z,3.82
2018-04-07T05:22:35.845Z,3.83
2018-04-07T05:23:35.854Z,3.92
2018-04-07T05:24:35.862Z,4.06
2018-04-07T05:25:35.859Z,4.03
2018-04-07T05:26:35.864Z,4.04
2018-04-07T05:27:35.870Z,4.08
2018-04-07T05:28:35.880Z,4.03
2018-04-07T05:29:35.890Z,4.10
2018-04-07T05:30:35.889Z,4.14
2018-04-07T05:31:35.909Z,4.03
2018-04-07T05:32:35.901Z,4.01
2018-04-07T05:33:35.914Z,4.03
2018-04-07T05:34:35.918Z,4.00
2018-04-07T05:35:35.924Z,4.06
2018-04-07T05:36:35.926Z,4.15
2018-04-07T05:37:35.933Z,4.12
2018-04-07T05:38:35.958Z,4.18
2018-04-07T05:39:35.950Z,4.14
2018-04-07T05:40:35.961Z,4.18
2018-04-07T05:41:35.959Z,4.22
2018-04-07T05:42:35.967Z,4.21
2018-04-07T05:43:35.969Z,4.25
2018-04-07T05:44:35.987Z,4.15
2018-04-07T05:45:35.983Z,4.12
2018-04-07T05:46:35.990Z,3.97
2018-04-07T05:47:36.000Z,4.01
2018-04-07T05:48:36.006Z,3.85
2018-04-07T05:49:36.009Z,3.80
2018-04-07T05:50:36.019Z,3.76
2018-04-07T05:51:36.022Z,3.82
2018-04-07T05:52:36.030Z,3.83
2018-04-07T05:53:36.035Z,3.75
2018-04-07T05:54:36.039Z,3.86
2018-04-07T05:55:36.049Z,3.88
2018-04-07T05:56:36.060Z,3.78
2018-04-07T05:57:36.064Z,3.62
2018-04-07T05:58:36.069Z,3.75
2018-04-07T05:59:36.074Z,3.86
2018-04-07T06:00:36.077Z,3.85
2018-04-07T06:01:36.091Z,3.90
2018-04-07T06:02:36.096Z,3.97
2018-04-07T06:03:36.098Z,4.12
2018-04-07T06:04:36.139Z,4.16
2018-04-07T06:05:36.110Z,4.21
2018-04-07T06:06:36.129Z,4.24
2018-04-07T06:07:36.136Z,4.39
2018-04-07T06:08:36.134Z,4.43
2018-04-07T06:09:36.139Z,4.59
2018-04-07T06:10:36.151Z,4.52
2018-04-07T06:11:36.151Z,4.61
2018-04-07T06:12:36.156Z,4.55
2018-04-07T06:13:36.170Z,4.58
2018-04-07T06:14:36.177Z,4.61
2018-04-07T06:15:36.195Z,4.61
2018-04-07T06:16:36.186Z,4.62
2018-04-07T06:17:36.191Z,4.58
2018-04-07T06:18:36.199Z,4.70
2018-04-07T06:19:36.203Z,4.69
2018-04-07T06:20:36.210Z,4.72
2018-04-07T06:21:36.226Z,4.72
2018-04-07T06:22:36.234Z,4.80
2018-04-07T06:23:36.229Z,4.67
2018-04-07T06:24:36.235Z,4.77
2018-04-07T06:25:36.242Z,4.80
2018-04-07T06:26:36.258Z,4.88
2018-04-07T06:27:36.260Z,4.86
2018-04-07T06:28:36.272Z,4.99
2018-04-07T06:29:36.269Z,5.01
2018-04-07T06:30:36.276Z,5.02
2018-04-07T06:31:36.975Z,5.12
2018-04-07T06:32:36.291Z,5.13
2018-04-07T06:33:36.297Z,5.17
2018-04-07T06:34:36.303Z,5.17
2018-04-07T06:35:36.321Z,5.19
2018-04-07T06:36:36.336Z,5.27
2018-04-07T06:37:36.325Z,5.30
2018-04-07T06:38:36.332Z,5.28
2018-04-07T06:39:36.341Z,5.41
2018-04-07T06:40:36.343Z,5.38
2018-04-07T06:41:36.352Z,5.35
2018-04-07T06:42:36.359Z,5.37
2018-04-07T06:43:36.527Z,5.37
2018-04-07T06:44:36.375Z,5.46
2018-04-07T06:45:36.382Z,5.49
2018-04-07T06:46:36.386Z,5.40
2018-04-07T06:47:36.414Z,5.43
2018-04-07T06:48:36.531Z,5.52
2018-04-07T06:49:36.409Z,5.55
2018-04-07T06:50:36.415Z,5.53
2018-04-07T06:51:36.434Z,5.52
2018-04-07T06:52:36.429Z,5.50
2018-04-07T06:53:36.435Z,5.55
2018-04-07T06:54:36.452Z,5.46
2018-04-07T06:55:36.452Z,5.55
2018-04-07T06:56:36.474Z,5.57
2018-04-07T06:57:36.470Z,5.67
2018-04-07T06:58:36.496Z,5.67
2018-04-07T06:59:36.478Z,5.60
2018-04-07T07:00:36.511Z,5.73
2018-04-07T07:01:36.492Z,5.73
2018-04-07T07:02:36.499Z,5.71
2018-04-07T07:03:36.505Z,5.74
2018-04-07T07:04:36.524Z,5.71
2018-04-07T07:05:36.522Z,5.75
2018-04-07T07:06:36.526Z,5.73
2018-04-07T07:07:36.586Z,5.83
2018-04-07T07:08:36.543Z,5.92
2018-04-07T07:09:36.617Z,6.01
2018-04-07T07:10:36.567Z,6.04
2018-04-07T07:11:36.563Z,6.14
2018-04-07T07:12:36.576Z,6.19
2018-04-07T07:13:36.577Z,6.19
2018-04-07T07:14:36.584Z,6.18
2018-04-07T07:15:36.593Z,6.21
2018-04-07T07:16:36.609Z,6.22
2018-04-07T07:17:36.608Z,6.26
2018-04-07T07:18:36.615Z,6.25
2018-04-07T07:19:36.623Z,6.28
2018-04-07T07:20:36.639Z,6.29
2018-04-07T07:21:36.638Z,6.21
2018-04-07T07:22:36.646Z,6.28
2018-04-07T07:23:36.697Z,6.32
2018-04-07T07:24:36.663Z,6.33
2018-04-07T07:25:36.668Z,6.43
2018-04-07T07:26:36.736Z,6.47
2018-04-07T07:27:36.682Z,6.54
2018-04-07T07:28:36.690Z,6.53
2018-04-07T07:29:36.757Z,6.68
2018-04-07T07:30:36.709Z,6.72
2018-04-07T07:31:36.714Z,6.71
2018-04-07T07:32:36.719Z,6.73
2018-04-07T07:33:36.728Z,6.81
2018-04-07T07:34:36.738Z,6.84
2018-04-07T07:35:36.742Z,6.95
2018-04-07T07:36:36.807Z,6.90
2018-04-07T07:37:36.758Z,6.87
2018-04-07T07:38:36.795Z,6.86
2018-04-07T07:39:36.771Z,6.95
2018-04-07T07:40:36.783Z,6.83
2018-04-07T07:41:36.861Z,6.83
2018-04-07T07:42:36.798Z,6.97
2018-04-07T07:43:36.812Z,7.01
2018-04-07T07:44:36.811Z,7.04
2018-04-07T07:45:36.820Z,7.15
2018-04-07T07:46:36.828Z,7.09
2018-04-07T07:47:36.851Z,7.19
2018-04-07T07:48:36.851Z,7.08
2018-04-07T07:49:36.854Z,7.22
2018-04-07T07:50:36.859Z,7.27
2018-04-07T07:51:36.871Z,7.41
2018-04-07T07:52:36.874Z,7.45
2018-04-07T07:53:36.888Z,7.31
2018-04-07T07:54:36.895Z,7.44
2018-04-07T07:55:36.901Z,7.42
2018-04-07T07:56:36.907Z,7.45
2018-04-07T07:57:36.912Z,7.47
2018-04-07T07:58:36.937Z,7.52
2018-04-07T07:59:36.934Z,7.56
2018-04-07T08:00:36.950Z,7.60
2018-04-07T08:01:36.943Z,7.63
2018-04-07T08:02:36.961Z,7.62
2018-04-07T08:03:36.959Z,7.56
2018-04-07T08:04:36.967Z,7.67
2018-04-07T08:05:36.977Z,7.71
2018-04-07T08:06:36.982Z,7.85
2018-04-07T08:07:37.001Z,7.93
2018-04-07T08:08:37.003Z,8.02
2018-04-07T08:09:37.024Z,8.00
2018-04-07T08:10:37.014Z,8.07
2018-04-07T08:11:37.035Z,8.07
2018-04-07T08:12:37.042Z,8.14
2018-04-07T08:13:37.054Z,8.22
2018-04-07T08:14:37.061Z,8.26
2018-04-07T08:15:37.054Z,8.26
2018-04-07T08:16:37.064Z,8.32
2018-04-07T08:17:37.073Z,8.33
2018-04-07T08:18:37.083Z,8.48
2018-04-07T08:19:37.095Z,8.42
2018-04-07T08:20:37.155Z,8.44
2018-04-07T08:21:37.106Z,8.51
2018-04-07T08:22:37.110Z,8.60
2018-04-07T08:23:37.120Z,8.57
2018-04-07T08:24:37.146Z,8.53
2018-04-07T08:25:37.142Z,8.60
2018-04-07T08:26:37.146Z,8.65
2018-04-07T08:27:37.153Z,8.62
2018-04-07T08:28:37.160Z,8.63
2018-04-07T08:29:37.271Z,8.65
2018-04-07T08:30:37.173Z,8.68
2018-04-07T08:31:37.184Z,8.68
2018-04-07T08:32:37.202Z,8.65
2018-04-07T08:33:37.206Z,8.73
2018-04-07T08:34:37.208Z,8.78
2018-04-07T08:35:37.216Z,8.90
2018-04-07T08:36:37.227Z,8.83
2018-04-07T08:37:37.245Z,8.86
2018-04-07T08:38:37.243Z,9.01
2018-04-07T08:39:37.264Z,8.94
2018-04-07T08:40:37.266Z,9.01
2018-04-07T08:41:37.270Z,9.06
2018-04-07T08:42:37.286Z,9.12
2018-04-07T08:43:37.281Z,9.20
2018-04-07T08:44:37.292Z,9.21
2018-04-07T08:45:37.316Z,9.05
2018-04-07T08:46:37.311Z,9.18
2018-04-07T08:47:37.320Z,9.21
2018-04-07T08:48:37.324Z,9.12
2018-04-07T08:49:37.334Z,9.18
2018-04-07T08:50:37.344Z,9.27
2018-04-07T08:51:37.348Z,9.28
2018-04-07T08:52:37.383Z,9.28
2018-04-07T08:53:37.366Z,9.39
2018-04-07T08:54:37.374Z,9.46
2018-04-07T08:55:37.384Z,9.49
2018-04-07T08:56:37.390Z,9.61
2018-04-07T08:57:37.400Z,9.52
2018-04-07T08:58:37.418Z,9.60
2018-04-07T08:59:37.422Z,9.60
2018-04-07T09:00:37.424Z,9.57
2018-04-07T09:01:37.435Z,9.61
2018-04-07T09:02:37.472Z,9.56
2018-04-07T09:03:37.450Z,9.61
2018-04-07T09:04:37.458Z,9.64
2018-04-07T09:05:37.476Z,9.68
2018-04-07T09:06:37.477Z,9.75
2018-04-07T09:07:37.488Z,9.88
2018-04-07T09:08:37.491Z,9.82
2018-04-07T09:09:37.508Z,9.81
2018-04-07T09:10:37.510Z,9.83
2018-04-07T09:11:37.525Z,9.82
2018-04-07T09:12:38.515Z,9.91
2018-04-07T09:13:37.537Z,9.93
2018-04-07T09:14:37.549Z,10.00
2018-04-07T09:15:37.553Z,10.00
2018-04-07T09:16:37.567Z,10.09
2018-04-07T09:17:37.572Z,10.10
2018-04-07T09:18:37.577Z,10.25
2018-04-07T09:19:37.586Z,10.62
2018-04-07T09:20:37.598Z,10.59
2018-04-07T09:21:37.604Z,10.63
2018-04-07T09:22:37.627Z,10.60
2018-04-07T09:23:37.636Z,10.63
2018-04-07T09:24:37.640Z,10.76
2018-04-07T09:25:37.639Z,10.73
2018-04-07T09:26:37.658Z,10.78
2018-04-07T09:27:37.656Z,10.83
2018-04-07T09:28:37.672Z,10.78
2018-04-07T09:29:37.677Z,10.92
2018-04-07T09:30:37.685Z,10.92
2018-04-07T09:31:37.695Z,11.27
2018-04-07T09:32:37.710Z,11.44
2018-04-07T09:33:37.714Z,11.44
2018-04-07T09:34:37.720Z,11.52
2018-04-07T09:35:37.736Z,11.70
2018-04-07T09:36:37.736Z,11.93
2018-04-07T09:37:37.747Z,11.96
2018-04-07T09:38:37.761Z,11.93
2018-04-07T09:39:37.763Z,11.99
2018-04-07T09:40:37.786Z,12.16
2018-04-07T09:41:37.791Z,12.42
2018-04-07T09:42:37.795Z,12.44
2018-04-07T09:43:37.806Z,12.41
2018-04-07T09:44:37.812Z,12.42
2018-04-07T09:45:37.817Z,12.42
2018-04-07T09:46:37.832Z,12.26
2018-04-07T09:47:37.842Z,12.26
2018-04-07T09:48:37.856Z,12.13
2018-04-07T09:49:37.858Z,12.12
2018-04-07T09:50:37.865Z,12.02
2018-04-07T09:51:37.879Z,12.04
2018-04-07T09:52:37.883Z,11.86
2018-04-07T09:53:37.912Z,11.87
2018-04-07T09:54:37.909Z,12.01
2018-04-07T09:55:37.910Z,12.04
2018-04-07T09:56:37.920Z,12.05
2018-04-07T09:57:37.933Z,12.09
2018-04-07T09:58:37.940Z,12.21
2018-04-07T09:59:37.958Z,12.20
2018-04-07T10:00:37.959Z,12.33
2018-04-07T10:01:37.966Z,12.38
2018-04-07T10:02:37.975Z,12.52
2018-04-07T10:03:37.987Z,12.60
2018-04-07T10:04:37.999Z,12.71
2018-04-07T10:05:38.008Z,12.77
2018-04-07T10:06:38.014Z,12.79
2018-04-07T10:07:38.036Z,12.79
2018-04-07T10:08:38.039Z,12.84
2018-04-07T10:09:38.045Z,12.89
2018-04-07T10:10:38.050Z,12.95
2018-04-07T10:11:38.062Z,12.96
2018-04-07T10:12:38.076Z,12.93
2018-04-07T10:13:38.104Z,12.99
2018-04-07T10:14:38.091Z,13.03
2018-04-07T10:15:38.102Z,13.29
2018-04-07T10:16:38.111Z,13.25
2018-04-07T10:17:38.120Z,13.76
2018-04-07T10:18:38.128Z,14.16
2018-04-07T10:19:38.140Z,14.17
2018-04-07T10:20:38.145Z,14.16
2018-04-07T10:21:38.159Z,14.09
2018-04-07T10:22:38.172Z,13.96
2018-04-07T10:23:38.175Z,13.96
2018-04-07T10:24:38.190Z,13.99
2018-04-07T10:25:38.232Z,13.84
2018-04-07T10:26:38.206Z,14.04
2018-04-07T10:27:38.214Z,14.02
2018-04-07T10:28:38.236Z,14.01
2018-04-07T10:29:38.237Z,13.99
2018-04-07T10:30:38.248Z,13.95
2018-04-07T10:31:39.028Z,14.04
2018-04-07T10:32:38.273Z,14.06
2018-04-07T10:33:38.286Z,13.99
2018-04-07T10:34:38.286Z,14.04
2018-04-07T10:35:38.300Z,14.14
2018-04-07T10:36:38.311Z,14.14
2018-04-07T10:37:38.322Z,14.27
2018-04-07T10:38:38.326Z,14.24
2018-04-07T10:39:38.335Z,14.32
2018-04-07T10:40:38.358Z,14.39
2018-04-07T10:41:38.359Z,14.57
2018-04-07T10:42:38.368Z,14.72
2018-04-07T10:43:38.375Z,14.86
2018-04-07T10:44:38.413Z,14.93
2018-04-07T10:45:38.408Z,15.03
2018-04-07T10:46:38.409Z,15.01
2018-04-07T10:47:38.422Z,15.13
2018-04-07T10:48:38.429Z,15.15
2018-04-07T10:49:38.438Z,15.27
2018-04-07T10:50:38.457Z,15.46
2018-04-07T10:51:38.466Z,15.63
2018-04-07T10:52:38.481Z,15.81
2018-04-07T10:53:38.486Z,16.00
2018-04-07T10:54:38.492Z,16.44
2018-04-07T10:55:38.503Z,17.07
2018-04-07T10:56:38.522Z,17.70
2018-04-07T10:57:38.524Z,18.27
2018-04-07T10:58:38.543Z,18.99
2018-04-07T10:59:38.569Z,19.43
2018-04-07T11:00:38.561Z,19.88
2018-04-07T11:01:38.579Z,20.62
2018-04-07T11:02:38.587Z,21.11
2018-04-07T11:03:38.612Z,21.81
2018-04-07T11:04:38.620Z,22.22
2018-04-07T11:05:38.633Z,22.78
2018-04-07T11:06:38.651Z,23.07
2018-04-07T11:07:38.671Z,23.29
2018-04-07T11:08:38.684Z,23.50
2018-04-07T11:09:38.705Z,23.80
2018-04-07T11:10:38.722Z,24.05
2018-04-07T11:11:38.737Z,24.38
2018-04-07T11:12:38.753Z,24.60
2018-04-07T11:13:38.775Z,24.80
2018-04-07T11:14:38.793Z,24.94
2018-04-07T11:15:38.812Z,24.73
2018-04-07T11:16:38.851Z,25.31
2018-04-07T11:17:38.852Z,25.72
2018-04-07T11:18:38.873Z,26.15
2018-04-07T11:19:38.899Z,26.22
2018-04-07T11:20:38.918Z,26.21
2018-04-07T11:21:38.940Z,26.44
2018-04-07T11:22:39.016Z,26.02
2018-04-07T11:23:38.983Z,26.39
2018-04-07T11:24:39.011Z,26.50
2018-04-07T11:25:39.023Z,26.73
2018-04-07T11:26:39.045Z,27.09
2018-04-07T11:27:39.067Z,26.74
2018-04-07T11:28:39.118Z,27.02
2018-04-07T11:29:39.117Z,26.87
2018-04-07T11:30:39.136Z,27.38
2018-04-07T11:31:39.159Z,27.74
2018-04-07T11:32:39.191Z,27.76
2018-04-07T11:33:40.052Z,27.82
2018-04-07T11:34:39.231Z,27.94
2018-04-07T11:35:39.259Z,28.38
2018-04-07T11:36:39.282Z,28.82
2018-04-07T11:37:39.304Z,28.93
2018-04-07T11:38:39.328Z,29.07
2018-04-07T11:39:39.360Z,29.29
2018-04-07T11:40:39.377Z,29.00
2018-04-07T11:41:39.406Z,28.96
2018-04-07T11:42:39.429Z,29.10
2018-04-07T11:43:39.446Z,29.22
2018-04-07T11:44:39.476Z,29.31
2018-04-07T11:45:39.504Z,29.74
2018-04-07T11:46:39.523Z,29.97
2018-04-07T11:47:39.550Z,30.38
2018-04-07T11:48:39.573Z,30.46
2018-04-07T11:49:39.597Z,30.50
2018-04-07T11:50:39.624Z,30.65
2018-04-07T11:51:39.660Z,30.72
2018-04-07T11:52:39.678Z,30.75
2018-04-07T11:53:40.559Z,30.80
2018-04-07T11:54:39.725Z,30.93
2018-04-07T11:55:39.755Z,30.18
2018-04-07T11:56:39.811Z,29.81
2018-04-07T11:57:39.810Z,30.36
2018-04-07T11:58:39.832Z,30.34
2018-04-07T11:59:39.855Z,30.38
2018-04-07T12:00:39.878Z,30.34
2018-04-07T12:01:39.907Z,30.43
2018-04-07T12:02:39.947Z,30.78
2018-04-07T12:03:39.958Z,30.99
2018-04-07T12:04:39.989Z,30.72
2018-04-07T12:05:40.018Z,30.52
2018-04-07T12:06:40.037Z,30.76
2018-04-07T12:07:40.071Z,30.62
2018-04-07T12:08:40.091Z,30.80
2018-04-07T12:09:40.136Z,31.01
2018-04-07T12:10:40.146Z,30.99
2018-04-07T12:11:40.181Z,31.39
2018-04-07T12:12:40.208Z,31.53
2018-04-07T12:13:40.223Z,31.26
2018-04-07T12:14:40.254Z,31.30
2018-04-07T12:15:40.276Z,31.72
2018-04-07T12:16:40.301Z,31.92
2018-04-07T12:17:40.339Z,32.10
2018-04-07T12:18:40.357Z,31.79
2018-04-07T12:19:40.381Z,32.00
2018-04-07T12:20:40.411Z,31.96
2018-04-07T12:21:40.441Z,31.87
2018-04-07T12:22:40.463Z,31.88
2018-04-07T12:23:40.487Z,31.95
2018-04-07T12:24:40.507Z,31.46
2018-04-07T12:25:40.548Z,31.80
2018-04-07T12:26:40.561Z,31.30
2018-04-07T12:27:40.588Z,31.30
2018-04-07T12:28:40.609Z,31.50
2018-04-07T12:29:40.636Z,30.91
2018-04-07T12:30:40.659Z,31.49
2018-04-07T12:31:40.684Z,31.98
2018-04-07T12:32:40.708Z,32.22
2018-04-07T12:33:40.739Z,32.39
2018-04-07T12:34:40.757Z,32.22
2018-04-07T12:35:40.784Z,32.79
2018-04-07T12:36:40.813Z,33.04
2018-04-07T12:37:40.837Z,33.19
2018-04-07T12:38:40.857Z,33.61
2018-04-07T12:39:40.893Z,33.30
2018-04-07T12:40:40.938Z,33.71
2018-04-07T12:41:41.566Z,33.86
2018-04-07T12:42:40.966Z,32.66
2018-04-07T12:43:40.989Z,33.17
2018-04-07T12:44:41.032Z,33.51
2018-04-07T12:45:41.044Z,33.89
2018-04-07T12:46:41.068Z,34.29
2018-04-07T12:47:41.106Z,34.46
2018-04-07T12:48:41.126Z,34.11
2018-04-07T12:49:41.153Z,34.45
2018-04-07T12:50:41.187Z,34.92
2018-04-07T12:51:41.209Z,34.99
2018-04-07T12:52:41.300Z,35.08
2018-04-07T12:53:41.264Z,34.64
2018-04-07T12:54:42.064Z,34.29
2018-04-07T12:55:41.323Z,34.29
2018-04-07T12:56:41.360Z,34.83
2018-04-07T12:57:41.378Z,35.10
2018-04-07T12:58:41.406Z,35.25
2018-04-07T12:59:41.443Z,35.58
2018-04-07T13:00:41.465Z,35.95
2018-04-07T13:01:41.494Z,36.19
2018-04-07T13:02:41.531Z,36.19
2018-04-07T13:03:41.552Z,36.42
2018-04-07T13:04:41.580Z,36.45
2018-04-07T13:05:41.611Z,36.80
2018-04-07T13:06:41.646Z,36.91
2018-04-07T13:07:41.670Z,36.63
2018-04-07T13:08:41.711Z,36.23
2018-04-07T13:09:41.729Z,36.61
2018-04-07T13:10:41.757Z,36.43